createdAt,value
2022-09-06T00:02:42.807Z,15.22
2022-09-06T00:07:46.384Z,15.20
2022-09-06T00:12:50.188Z,15.13
2022-09-06T00:17:54.592Z,15.03
2022-09-06T00:23:04.536Z,14.90
2022-09-06T00:28:09.411Z,14.73
2022-09-06T00:33:14.103Z,14.61
2022-09-06T00:38:20.435Z,14.45
2022-09-06T00:43:30.313Z,14.30
2022-09-06T00:48:34.014Z,14.18
2022-09-06T00:53:37.687Z,14.06
2022-09-06T00:58:41.714Z,13.96
2022-09-06T01:03:46.642Z,13.84
2022-09-06T01:09:06.947Z,13.73
2022-09-06T01:14:34.948Z,13.65
2022-09-06T01:20:16.015Z,13.59
2022-09-06T01:26:06.320Z,13.54
2022-09-06T01:31:25.242Z,13.53
2022-09-06T01:36:45.769Z,13.53
2022-09-06T01:41:59.315Z,13.59
2022-09-06T01:47:21.463Z,13.63
2022-09-06T01:52:44.050Z,13.63
2022-09-06T01:58:10.175Z,13.64
2022-09-06T02:03:41.376Z,13.73
2022-09-06T02:08:48.224Z,13.71
2022-09-06T02:13:58.255Z,13.62
2022-09-06T02:19:23.715Z,13.52
2022-09-06T02:24:31.092Z,13.43
2022-09-06T02:29:36.630Z,13.22
2022-09-06T02:34:41.679Z,13.05
2022-09-06T02:39:45.304Z,12.93
2022-09-06T02:44:49.597Z,12.79
2022-09-06T02:49:53.630Z,12.59
2022-09-06T02:54:57.093Z,12.33
2022-09-06T03:00:00.428Z,12.13
2022-09-06T03:05:04.105Z,11.98
2022-09-06T03:10:07.747Z,11.88
2022-09-06T03:15:12.830Z,11.80
2022-09-06T03:20:16.254Z,11.77
2022-09-06T03:25:19.683Z,11.63
2022-09-06T03:30:23.364Z,11.49
2022-09-06T03:35:30.532Z,11.42
2022-09-06T03:40:36.788Z,11.37
2022-09-06T03:45:43.439Z,11.35
2022-09-06T03:50:53.060Z,11.43
2022-09-06T03:56:01.972Z,11.50
2022-09-06T04:01:12.059Z,11.58
2022-09-06T04:06:16.729Z,11.67
2022-09-06T04:11:32.629Z,11.74
2022-09-06T04:16:58.194Z,11.82
2022-09-06T04:22:13.830Z,11.94
2022-09-06T04:27:18.763Z,12.10
2022-09-06T04:32:22.119Z,12.22
2022-09-06T04:37:25.616Z,12.30
2022-09-06T04:42:29.077Z,12.33
2022-09-06T04:47:35.871Z,12.40
2022-09-06T04:52:39.185Z,12.49
2022-09-06T04:57:46.544Z,12.60
2022-09-06T05:02:52.001Z,12.68
2022-09-06T05:07:56.153Z,12.75
2022-09-06T05:12:59.910Z,12.81
2022-09-06T05:18:12.867Z,12.91
2022-09-06T05:23:33.877Z,13.02
2022-09-06T05:28:40.140Z,13.12
2022-09-06T05:33:44.885Z,13.16
2022-09-06T05:38:48.441Z,13.22
2022-09-06T05:43:54.802Z,13.28
2022-09-06T05:49:04.973Z,13.44
2022-09-06T05:54:11.580Z,13.81
2022-09-06T05:59:15.429Z,14.10
2022-09-06T06:04:18.994Z,14.30
2022-09-06T06:09:22.362Z,14.53
2022-09-06T06:14:25.668Z,14.83
2022-09-06T06:19:29.425Z,14.88
2022-09-06T06:24:33.642Z,15.08
2022-09-06T06:29:38.600Z,15.44
2022-09-06T06:34:42.085Z,15.75
2022-09-06T06:39:45.568Z,15.89
2022-09-06T06:44:49.005Z,16.07
2022-09-06T06:49:52.447Z,16.27
2022-09-06T06:54:58.847Z,16.34
2022-09-06T07:00:07.202Z,16.32
2022-09-06T07:10:36.654Z,16.05
2022-09-06T07:15:41.091Z,15.96
2022-09-06T07:26:15.801Z,15.90
2022-09-06T07:36:45.854Z,15.97
2022-09-06T07:41:51.021Z,16.03
2022-09-06T07:46:54.603Z,16.14
2022-09-06T07:52:00.279Z,16.29
2022-09-06T07:57:03.711Z,16.46
2022-09-06T08:02:10.457Z,16.58
2022-09-06T08:07:40.460Z,16.76
2022-09-06T08:12:59.700Z,16.93
2022-09-06T08:18:11.816Z,17.04
2022-09-06T08:23:20.177Z,17.08
2022-09-06T08:28:28.998Z,16.99
2022-09-06T08:33:34.198Z,16.96
2022-09-06T08:38:42.462Z,16.96
2022-09-06T08:49:33.440Z,17.60
2022-09-06T08:55:05.206Z,17.57
2022-09-06T09:00:20.510Z,17.76
2022-09-06T09:05:33.074Z,18.10
2022-09-06T09:10:43.776Z,18.50
2022-09-06T09:15:47.254Z,18.82
2022-09-06T09:20:52.191Z,19.32
2022-09-06T09:25:59.991Z,19.75
2022-09-06T09:31:03.609Z,20.06
2022-09-06T09:36:19.985Z,20.49
2022-09-06T09:41:49.600Z,20.61
2022-09-06T09:46:53.813Z,20.68
2022-09-06T09:52:12.105Z,20.87
2022-09-06T09:57:19.094Z,21.17
2022-09-06T10:02:32.233Z,21.64
2022-09-06T10:07:43.903Z,21.71
2022-09-06T10:12:47.509Z,21.71
2022-09-06T10:17:52.017Z,21.78
2022-09-06T10:23:05.922Z,21.70
2022-09-06T10:28:15.390Z,21.46
2022-09-06T10:34:00.362Z,21.61
2022-09-06T10:39:35.907Z,21.68
2022-09-06T10:44:54.240Z,21.58
2022-09-06T10:49:59.597Z,21.49
2022-09-06T10:55:22.724Z,21.42
2022-09-06T11:01:04.584Z,21.65
2022-09-06T11:06:22.502Z,21.90
2022-09-06T11:11:41.977Z,21.99
2022-09-06T11:17:00.176Z,22.08
2022-09-06T11:22:42.436Z,22.00
2022-09-06T11:27:53.931Z,21.91
2022-09-06T11:33:16.797Z,22.14
2022-09-06T11:38:25.836Z,22.57
2022-09-06T11:44:07.709Z,22.84
2022-09-06T11:49:40.378Z,22.63
2022-09-06T11:55:25.292Z,22.73
2022-09-06T12:01:39.983Z,22.89
2022-09-06T12:07:21.765Z,23.10
2022-09-06T12:12:52.156Z,23.16
2022-09-06T12:18:22.898Z,23.15
2022-09-06T12:24:45.875Z,23.02
2022-09-06T12:30:42.436Z,22.95
2022-09-06T12:36:02.306Z,23.00
2022-09-06T12:46:52.465Z,23.12
2022-09-06T12:52:34.182Z,23.16
2022-09-06T12:58:31.839Z,23.35
2022-09-06T13:03:54.022Z,23.63
2022-09-06T13:09:40.962Z,24.12
2022-09-06T13:22:33.887Z,24.28
2022-09-06T13:28:38.558Z,24.20
2022-09-06T13:34:11.110Z,23.88
2022-09-06T13:39:34.216Z,23.73
2022-09-06T13:44:40.343Z,23.48
2022-09-06T13:49:58.734Z,23.23
2022-09-06T13:55:23.061Z,23.03
2022-09-06T14:00:35.642Z,22.89
2022-09-06T14:05:48.081Z,22.96
2022-09-06T14:10:55.188Z,22.92
2022-09-06T14:15:58.758Z,22.89
2022-09-06T14:21:02.408Z,22.88
2022-09-06T14:26:14.884Z,22.74
2022-09-06T14:31:36.110Z,22.60
2022-09-06T14:36:56.453Z,22.38
2022-09-06T14:42:05.069Z,22.13
2022-09-06T14:47:17.262Z,21.87
2022-09-06T14:52:36.344Z,21.72
2022-09-06T14:58:00.376Z,21.63
2022-09-06T15:03:31.575Z,21.61
2022-09-06T15:09:09.970Z,21.78
2022-09-06T15:14:41.687Z,22.18
2022-09-06T15:20:05.732Z,22.43
2022-09-06T15:25:35.817Z,22.34
2022-09-06T15:30:50.793Z,22.10
2022-09-06T15:36:21.007Z,21.82
2022-09-06T15:41:27.839Z,21.52
2022-09-06T15:46:45.900Z,21.25
2022-09-06T15:51:51.813Z,21.10
2022-09-06T15:57:07.243Z,20.95
2022-09-06T16:02:30.712Z,20.81
2022-09-06T16:07:43.537Z,20.67
2022-09-06T16:12:58.155Z,20.51
2022-09-06T16:18:06.451Z,20.27
2022-09-06T16:23:13.119Z,20.07
2022-09-06T16:28:21.876Z,19.86
2022-09-06T16:33:25.607Z,19.65
2022-09-06T16:38:33.570Z,19.43
2022-09-06T16:43:38.877Z,19.20
2022-09-06T16:49:07.247Z,19.06
2022-09-06T16:54:15.004Z,18.91
2022-09-06T16:59:23.551Z,18.76
2022-09-06T17:04:29.705Z,18.62
2022-09-06T17:09:45.521Z,18.49
2022-09-06T17:14:54.706Z,18.34
2022-09-06T17:19:59.403Z,18.16
2022-09-06T17:25:04.544Z,18.01
2022-09-06T17:30:08.772Z,17.85
2022-09-06T17:35:17.319Z,17.73
2022-09-06T17:40:21.985Z,17.61
2022-09-06T17:45:28.330Z,17.46
2022-09-06T17:50:35.795Z,17.34
2022-09-06T17:55:41.422Z,17.25
2022-09-06T18:00:48.363Z,17.13
2022-09-06T18:05:52.112Z,16.98
2022-09-06T18:11:24.661Z,16.93
2022-09-06T18:16:34.740Z,16.90
2022-09-06T18:21:44.841Z,16.89
2022-09-06T18:26:54.965Z,16.87
2022-09-06T18:32:04.599Z,16.88
2022-09-06T18:37:13.219Z,16.87
2022-09-06T18:42:20.421Z,16.88
2022-09-06T18:47:58.553Z,16.88
2022-09-06T18:53:20.416Z,16.88
2022-09-06T18:58:57.026Z,16.85
2022-09-06T19:04:10.675Z,16.80
2022-09-06T19:09:57.029Z,16.73
2022-09-06T19:15:32.798Z,16.70
2022-09-06T19:20:53.015Z,16.70
2022-09-06T19:26:19.947Z,16.69
2022-09-06T19:32:03.907Z,16.69
2022-09-06T19:37:45.316Z,16.64
2022-09-06T19:43:23.953Z,16.59
2022-09-06T19:48:53.699Z,16.47
2022-09-06T19:54:19.911Z,16.36
2022-09-06T20:05:24.358Z,16.01
2022-09-06T20:10:35.093Z,15.85
2022-09-06T20:15:42.116Z,15.69
2022-09-06T20:20:45.690Z,15.55
2022-09-06T20:26:13.081Z,15.42
2022-09-06T20:31:18.934Z,15.30
2022-09-06T20:36:22.528Z,15.15
2022-09-06T20:41:26.965Z,15.01
2022-09-06T20:46:32.712Z,14.89
2022-09-06T20:51:38.800Z,14.76
2022-09-06T20:56:43.572Z,14.65
2022-09-06T21:01:47.579Z,14.51
2022-09-06T21:06:51.771Z,14.36
2022-09-06T21:11:57.741Z,14.24
2022-09-06T21:17:01.229Z,14.12
2022-09-06T21:22:04.618Z,14.03
2022-09-06T21:27:08.158Z,14.02
2022-09-06T21:32:11.560Z,14.02
2022-09-06T21:37:14.930Z,13.95
2022-09-06T21:42:18.902Z,13.88
2022-09-06T21:47:22.279Z,13.82
2022-09-06T21:52:26.715Z,13.80
2022-09-06T21:57:30.042Z,13.73
2022-09-06T22:02:34.496Z,13.64
2022-09-06T22:07:38.040Z,13.56
2022-09-06T22:12:45.905Z,13.50
2022-09-06T22:17:49.864Z,13.46
2022-09-06T22:22:53.139Z,13.42
2022-09-06T22:27:56.622Z,13.43
2022-09-06T22:33:00.191Z,13.38
2022-09-06T22:38:03.739Z,13.31
2022-09-06T22:43:12.900Z,13.22
2022-09-06T22:48:24.988Z,13.15
2022-09-06T22:53:29.575Z,13.18
2022-09-06T22:58:38.070Z,13.23
2022-09-06T23:03:42.759Z,13.26
2022-09-06T23:08:47.247Z,13.28
2022-09-06T23:13:55.747Z,13.33
2022-09-06T23:19:05.982Z,13.31
2022-09-06T23:24:11.548Z,13.25
2022-09-06T23:29:15.162Z,13.08
2022-09-06T23:34:18.688Z,12.98
2022-09-06T23:39:22.515Z,12.87
2022-09-06T23:44:25.992Z,12.78
2022-09-06T23:49:29.899Z,12.69
2022-09-06T23:54:43.424Z,12.65
2022-09-06T23:59:49.803Z,12.63
